Time;durP1;ratioP1;P1;durP2;ratioP2;P2;SDS_P1;SDS_P2;PMS_P1;PMS_P2;Temp;Humidity;BMP_temperature;BMP_pressure;BME280_temperature;BME280_humidity;BME280_pressure;Samples;Min_cycle;Max_cycle;Signal;HPM_P1;HPM_P2
2023/09/23 00:01:57;;;;;;;;;;;;;;;15.14;64.67;99801.53;4953804;28;7113;-73
2023/09/23 00:04:22;;;;;;;;;;;;;;;15.18;64.29;99801.59;5001644;28;7055;-73
2023/09/23 00:06:49;;;;;;;;;;;;;;;15.22;64.17;99805.97;4996459;28;6796;-73
2023/09/23 00:09:17;;;;;;;;;;;;;;;15.21;63.85;99810.28;5001084;28;7442;-73
2023/09/23 00:11:43;;;;;;;;;;;;;;;15.18;63.79;99797.28;4997720;28;7698;-73
2023/09/23 00:14:10;;;;;;;;;;;;;;;15.13;63.44;99802.34;5002984;28;7472;-74
2023/09/23 00:16:35;;;;;;;;;;;;;;;15.08;63.46;99795.38;5002705;28;7300;-73
2023/09/23 00:19:02;;;;;;;;;;;;;;;15.04;63.30;99798.75;4980941;28;6943;-74
2023/09/23 00:21:27;;;;;;;;;;;;;;;14.99;63.68;99799.50;5001569;28;7188;-74
2023/09/23 00:23:53;;;;;;;;;;;;;;;14.94;63.90;99802.84;5003635;28;7122;-74
2023/09/23 00:26:20;;;;;;;;;;;;;;;14.91;63.18;99797.63;4979444;28;7010;-74
2023/09/23 00:28:46;;;;;;;;;;;;;;;14.87;63.66;99807.00;4994966;28;7145;-74
2023/09/23 00:31:14;;;;;;;;;;;;;;;14.84;63.64;99805.22;4999984;28;6956;-74
2023/09/23 00:33:41;;;;;;;;;;;;;;;14.80;64.14;99805.13;4988136;28;7044;-73
2023/09/23 00:36:08;;;;;;;;;;;;;;;14.78;64.21;99807.69;4997968;28;7285;-74
2023/09/23 00:38:37;;;;;;;;;;;;;;;14.75;64.03;99805.03;4986280;28;6807;-74
2023/09/23 00:41:04;;;;;;;;;;;;;;;14.72;63.32;99800.66;5004038;28;7914;-73
2023/09/23 00:43:32;;;;;;;;;;;;;;;14.69;63.22;99805.72;5003364;28;7074;-74
2023/09/23 00:45:59;;;;;;;;;;;;;;;14.68;63.68;99797.97;4998500;28;7023;-73
2023/09/23 00:48:26;;;;;;;;;;;;;;;14.68;64.41;99797.97;5000622;28;7242;-73
2023/09/23 00:50:53;;;;;;;;;;;;;;;14.67;63.71;99806.53;4999648;28;6964;-73
2023/09/23 00:53:23;;;;;;;;;;;;;;;14.67;64.79;99807.41;4984855;28;7070;-74
2023/09/23 00:55:52;;;;;;;;;;;;;;;14.67;64.27;99807.41;4998833;28;7260;-74
2023/09/23 00:58:21;;;;;;;;;;;;;;;14.68;64.36;99810.88;4978918;28;7263;-74
2023/09/23 01:00:47;;;;;;;;;;;;;;;14.70;64.66;99816.94;4982391;28;6880;-74
2023/09/23 01:03:13;;;;;;;;;;;;;;;14.71;64.29;99823.84;4984388;28;7004;-73
2023/09/23 01:05:40;;;;;;;;;;;;;;;14.72;64.33;99828.16;4985652;28;7201;-74
2023/09/23 01:08:25;;;;;;;;;;;;;;;14.71;63.72;99835.00;4987857;28;6982;-74
2023/09/23 01:10:51;;;;;;;;;;;;;;;14.71;64.77;99835.00;5000348;28;6883;-74
2023/09/23 01:13:23;;;;;;;;;;;;;;;14.72;64.39;99831.63;5002144;28;7171;-74
2023/09/23 01:15:49;;;;;;;;;;;;;;;14.74;64.12;99836.81;5000493;28;7857;-73
2023/09/23 01:18:14;;;;;;;;;;;;;;;14.76;64.41;99835.13;5003414;28;6803;-74
2023/09/23 01:20:45;;;;;;;;;;;;;;;14.76;63.66;99832.56;5003285;28;7018;-74
2023/09/23 01:23:12;;;;;;;;;;;;;;;14.79;64.76;99842.97;5000857;28;6815;-74
2023/09/23 01:25:38;;;;;;;;;;;;;;;14.80;65.11;99847.28;4999813;28;6811;-74
2023/09/23 01:28:08;;;;;;;;;;;;;;;14.81;64.88;99851.59;5003681;28;6796;-73
2023/09/23 01:30:35;;;;;;;;;;;;;;;14.84;63.91;99854.22;4977537;28;7004;-73
2023/09/23 01:33:04;;;;;;;;;;;;;;;14.84;64.74;99854.22;5001475;28;6832;-74
2023/09/23 01:35:31;;;;;;;;;;;;;;;14.86;63.68;99857.72;5000710;28;7089;-73
2023/09/23 01:37:57;;;;;;;;;;;;;;;14.85;64.39;99853.41;5002011;28;8133;-74
2023/09/23 01:40:24;;;;;;;;;;;;;;;14.86;64.07;99862.03;5000193;28;7003;-73
2023/09/23 01:42:49;;;;;;;;;;;;;;;14.84;63.67;99861.97;5004558;28;6824;-74
2023/09/23 01:45:15;;;;;;;;;;;;;;;14.84;64.03;99861.97;4996284;28;7262;-73
2023/09/23 01:47:41;;;;;;;;;;;;;;;14.85;64.65;99866.28;5000354;28;7023;-73
2023/09/23 01:50:09;;;;;;;;;;;;;;;14.87;63.67;99863.75;4984198;28;7082;-74
2023/09/23 01:52:36;;;;;;;;;;;;;;;14.88;64.79;99869.81;4991137;28;7006;-74
2023/09/23 01:55:03;;;;;;;;;;;;;;;14.89;63.82;99874.13;4978517;28;7474;-73
2023/09/23 01:57:30;;;;;;;;;;;;;;;14.89;64.16;99871.53;5003634;28;6815;-74
2023/09/23 01:59:55;;;;;;;;;;;;;;;14.87;63.99;99874.06;4996997;28;7243;-74
2023/09/23 02:02:21;;;;;;;;;;;;;;;14.85;63.80;99879.19;4983144;28;6859;-73
2023/09/23 02:04:47;;;;;;;;;;;;;;;14.84;64.16;99885.19;4998157;28;6874;-74
2023/09/23 02:07:13;;;;;;;;;;;;;;;14.83;63.87;99896.34;4985830;28;7196;-73
2023/09/23 02:09:39;;;;;;;;;;;;;;;14.84;64.02;99898.09;4977927;28;8846;-73
2023/09/23 02:12:04;;;;;;;;;;;;;;;14.81;64.21;99900.63;4994967;28;6788;-74
2023/09/23 02:14:30;;;;;;;;;;;;;;;14.81;63.68;99905.78;4998029;28;8077;-73
2023/09/23 02:16:58;;;;;;;;;;;;;;;14.79;63.61;99910.03;4975126;28;7197;-74
2023/09/23 02:19:25;;;;;;;;;;;;;;;14.77;63.81;99906.53;4998124;28;7218;-74
2023/09/23 02:21:51;;;;;;;;;;;;;;;14.76;64.25;99915.09;4993259;28;7218;-73
2023/09/23 02:24:18;;;;;;;;;;;;;;;14.74;64.11;99911.63;4984697;28;7220;-74
2023/09/23 02:26:45;;;;;;;;;;;;;;;14.73;63.88;99912.47;4969987;28;7146;-74
2023/09/23 02:29:14;;;;;;;;;;;;;;;14.72;63.64;99909.00;4986548;28;6994;-74
2023/09/23 02:31:49;;;;;;;;;;;;;;;14.73;64.02;99915.03;4996197;28;6821;-74
2023/09/23 02:34:18;;;;;;;;;;;;;;;14.73;64.20;99915.03;4978731;28;7255;-73
2023/09/23 02:36:50;;;;;;;;;;;;;;;14.71;63.79;99922.69;4997282;28;7070;-74
2023/09/23 02:39:19;;;;;;;;;;;;;;;14.71;63.56;99917.53;4993726;28;7277;-73
2023/09/23 02:41:49;;;;;;;;;;;;;;;14.71;64.42;99924.44;4985889;28;7576;-73
2023/09/23 02:44:18;;;;;;;;;;;;;;;14.69;63.65;99926.09;4976078;28;6996;-73
2023/09/23 02:46:54;;;;;;;;;;;;;;;14.68;64.11;99930.38;4975703;28;6808;-74
2023/09/23 02:49:19;;;;;;;;;;;;;;;14.68;63.79;99926.94;4999733;28;6980;-74
2023/09/23 02:51:45;;;;;;;;;;;;;;;14.66;64.18;99931.16;4995160;28;7064;-74
2023/09/23 02:54:15;;;;;;;;;;;;;;;14.66;64.30;99936.31;5001115;28;6855;-74
2023/09/23 02:56:41;;;;;;;;;;;;;;;14.65;64.10;99932.00;4998006;28;7188;-73
2023/09/23 02:59:13;;;;;;;;;;;;;;;14.63;64.25;99938.84;4981690;28;6987;-74
2023/09/23 03:01:42;;;;;;;;;;;;;;;14.64;64.31;99940.59;4995758;28;7347;-74
2023/09/23 03:04:16;;;;;;;;;;;;;;;14.63;64.24;99946.56;5001061;28;7007;-74
2023/09/23 03:06:49;;;;;;;;;;;;;;;14.62;64.08;99945.69;4998647;28;7134;-74
2023/09/23 03:09:23;;;;;;;;;;;;;;;14.61;64.30;99950.84;4978585;28;6962;-74
2023/09/23 03:11:53;;;;;;;;;;;;;;;14.62;63.80;99950.00;4984997;28;7648;-74
2023/09/23 03:14:35;;;;;;;;;;;;;;;14.63;64.40;99950.03;4957888;28;7016;-74
2023/09/23 03:17:01;;;;;;;;;;;;;;;14.65;64.41;99956.09;4992198;28;6855;-74
2023/09/23 03:19:27;;;;;;;;;;;;;;;14.68;64.51;99956.16;4981838;28;7274;-73
2023/09/23 03:21:57;;;;;;;;;;;;;;;14.72;64.34;99954.53;4995523;28;6981;-74
2023/09/23 03:24:25;;;;;;;;;;;;;;;14.76;64.26;99958.94;4983217;28;7113;-74
2023/09/23 03:26:53;;;;;;;;;;;;;;;14.80;65.00;99953.06;4959648;28;7263;-74
2023/09/23 03:29:18;;;;;;;;;;;;;;;14.85;64.43;99961.75;5001501;28;7056;-74
2023/09/23 03:31:44;;;;;;;;;;;;;;;14.89;64.83;99964.44;4994301;28;6783;-74
2023/09/23 03:34:13;;;;;;;;;;;;;;;14.90;64.67;99963.59;4999330;28;7039;-74
2023/09/23 03:36:41;;;;;;;;;;;;;;;14.91;64.16;99965.31;4995851;28;6989;-74
2023/09/23 03:39:08;;;;;;;;;;;;;;;14.91;64.06;99970.50;4993198;28;7427;-74
2023/09/23 03:41:37;;;;;;;;;;;;;;;14.88;64.37;99966.13;4977026;28;7186;-74
2023/09/23 03:44:03;;;;;;;;;;;;;;;14.87;64.42;99964.38;4970341;28;6977;-73
2023/09/23 03:46:29;;;;;;;;;;;;;;;14.87;63.76;99964.38;5008099;28;6966;-72
2023/09/23 03:48:54;;;;;;;;;;;;;;;14.86;64.36;99968.66;5008342;28;6800;-71
2023/09/23 03:51:20;;;;;;;;;;;;;;;14.86;63.81;99966.06;4986343;28;7223;-74
2023/09/23 03:53:48;;;;;;;;;;;;;;;14.86;63.89;99968.66;5005566;28;6792;-72
2023/09/23 03:56:14;;;;;;;;;;;;;;;14.86;64.49;99967.81;5010285;28;6824;-74
2023/09/23 03:58:39;;;;;;;;;;;;;;;14.89;63.97;99973.03;4991378;28;7285;-72
2023/09/23 04:01:13;;;;;;;;;;;;;;;14.89;63.86;99972.16;4991189;28;7167;-72
2023/09/23 04:03:41;;;;;;;;;;;;;;;14.88;63.79;99976.44;5009478;28;7139;-73
2023/09/23 04:06:07;;;;;;;;;;;;;;;14.86;64.01;99978.13;4998848;28;7205;-73
2023/09/23 04:08:33;;;;;;;;;;;;;;;14.86;64.25;99980.69;4976940;28;6941;-74
2023/09/23 04:11:05;;;;;;;;;;;;;;;14.85;63.81;99982.41;4981025;28;6972;-73
2023/09/23 04:13:31;;;;;;;;;;;;;;;14.84;64.15;99975.50;5011902;28;7258;-73
2023/09/23 04:16:00;;;;;;;;;;;;;;;14.82;63.67;99979.75;4991483;28;6961;-72
2023/09/23 04:18:28;;;;;;;;;;;;;;;14.83;63.51;99980.63;5007915;28;7005;-72
2023/09/23 04:20:54;;;;;;;;;;;;;;;14.80;63.75;99984.00;5005260;28;7450;-74
2023/09/23 04:23:20;;;;;;;;;;;;;;;14.78;63.65;99982.22;5009305;28;6874;-72
2023/09/23 04:25:49;;;;;;;;;;;;;;;14.76;63.29;99987.31;4987780;28;7074;-72
2023/09/23 04:28:15;;;;;;;;;;;;;;;14.75;63.95;99989.88;4985101;28;6980;-74
2023/09/23 04:30:40;;;;;;;;;;;;;;;14.73;63.19;99995.00;5004734;28;9269;-72
2023/09/23 04:33:06;;;;;;;;;;;;;;;14.69;63.24;99991.44;5008472;28;7011;-73
2023/09/23 04:35:31;;;;;;;;;;;;;;;14.66;63.53;99998.22;5007818;28;7112;-71
2023/09/23 04:37:57;;;;;;;;;;;;;;;14.63;63.26;99993.00;5005154;28;6872;-74
2023/09/23 04:40:22;;;;;;;;;;;;;;;14.60;63.74;99998.94;5005023;28;7165;-74
2023/09/23 04:42:48;;;;;;;;;;;;;;;14.58;64.23;100000.63;5006226;28;7308;-73
2023/09/23 04:45:14;;;;;;;;;;;;;;;14.54;64.11;100002.25;5008878;28;6948;-73
2023/09/23 04:47:40;;;;;;;;;;;;;;;14.52;64.09;100008.19;5008712;28;6804;-73
2023/09/23 04:50:08;;;;;;;;;;;;;;;14.50;63.99;100005.59;4998737;28;6935;-73
2023/09/23 04:52:34;;;;;;;;;;;;;;;14.48;63.90;100012.38;5010294;28;6887;-73
2023/09/23 04:55:01;;;;;;;;;;;;;;;14.47;64.01;100012.38;5004763;28;7007;-72
2023/09/23 04:57:27;;;;;;;;;;;;;;;14.47;64.65;100020.13;5005234;28;7050;-74
2023/09/23 04:59:54;;;;;;;;;;;;;;;14.44;63.38;100020.91;5007521;28;7219;-74
2023/09/23 05:02:20;;;;;;;;;;;;;;;14.44;63.77;100024.38;4998967;28;7220;-72
2023/09/23 05:04:46;;;;;;;;;;;;;;;14.43;64.47;100024.31;4984990;28;6796;-73
2023/09/23 05:07:12;;;;;;;;;;;;;;;14.43;64.22;100024.31;4964552;28;8607;-72
2023/09/23 05:09:39;;;;;;;;;;;;;;;14.44;64.12;100031.22;5001990;28;6968;-73
2023/09/23 05:12:05;;;;;;;;;;;;;;;14.44;64.11;100031.22;5003573;28;6800;-73
2023/09/23 05:14:30;;;;;;;;;;;;;;;14.45;64.14;100038.09;5005334;28;6788;-71
2023/09/23 05:16:58;;;;;;;;;;;;;;;14.46;64.57;100039.84;4980376;28;6982;-74
2023/09/23 05:19:25;;;;;;;;;;;;;;;14.44;63.69;100044.09;4983230;28;7118;-73
2023/09/23 05:21:53;;;;;;;;;;;;;;;14.44;64.19;100051.84;4989134;28;6951;-73
2023/09/23 05:24:19;;;;;;;;;;;;;;;14.43;63.80;100056.09;5006148;28;7275;-72
2023/09/23 05:26:47;;;;;;;;;;;;;;;14.42;63.80;100056.94;5002486;28;7163;-74
2023/09/23 05:29:13;;;;;;;;;;;;;;;14.44;64.37;100069.88;4983141;28;6888;-73
2023/09/23 05:31:38;;;;;;;;;;;;;;;14.44;64.00;100067.31;5007370;28;6811;-72
2023/09/23 05:34:04;;;;;;;;;;;;;;;14.46;64.60;100075.09;4964152;28;6955;-73
2023/09/23 05:36:33;;;;;;;;;;;;;;;14.48;64.35;100078.56;5002403;28;6931;-74
2023/09/23 05:38:59;;;;;;;;;;;;;;;14.48;64.58;100082.00;4973789;28;6975;-72
2023/09/23 05:41:25;;;;;;;;;;;;;;;14.50;64.52;100088.09;5004481;28;6780;-72
2023/09/23 05:43:53;;;;;;;;;;;;;;;14.52;64.74;100094.19;4987794;28;6799;-72
2023/09/23 05:46:19;;;;;;;;;;;;;;;14.52;64.55;100095.88;4980025;28;6985;-72
2023/09/23 05:48:48;;;;;;;;;;;;;;;14.54;63.69;100104.53;4991969;28;6999;-72
2023/09/23 05:51:15;;;;;;;;;;;;;;;14.54;64.65;100105.41;5007714;28;6816;-73
2023/09/23 05:53:41;;;;;;;;;;;;;;;14.55;64.13;100108.88;5007521;28;7319;-74
2023/09/23 05:56:06;;;;;;;;;;;;;;;14.56;64.38;100111.47;5006137;28;6968;-73
2023/09/23 05:58:32;;;;;;;;;;;;;;;14.57;64.38;100126.09;4999903;28;6995;-74
2023/09/23 06:00:57;;;;;;;;;;;;;;;14.59;64.19;100128.72;5004210;28;7329;-72
2023/09/23 06:03:23;;;;;;;;;;;;;;;14.62;64.11;100140.84;4974609;28;6961;-74
2023/09/23 06:05:49;;;;;;;;;;;;;;;14.63;64.52;100140.91;5019378;28;7262;-74
2023/09/23 06:08:14;;;;;;;;;;;;;;;14.68;64.32;100148.75;4997727;28;7194;-74
2023/09/23 06:10:40;;;;;;;;;;;;;;;14.71;64.61;100156.56;4997520;28;6999;-74
2023/09/23 06:13:06;;;;;;;;;;;;;;;14.76;64.60;100156.72;5005549;28;7254;-75
2023/09/23 06:15:32;;;;;;;;;;;;;;;14.78;64.92;100160.22;5018291;28;6956;-74
2023/09/23 06:17:57;;;;;;;;;;;;;;;14.83;64.16;100162.09;4997272;28;7000;-75
2023/09/23 06:20:23;;;;;;;;;;;;;;;14.90;64.13;100172.59;5015864;28;6768;-74
2023/09/23 06:22:48;;;;;;;;;;;;;;;14.94;64.48;100177.88;5020240;28;7199;-73
2023/09/23 06:25:14;;;;;;;;;;;;;;;14.97;64.13;100174.50;5021463;28;6808;-76
2023/09/23 06:27:39;;;;;;;;;;;;;;;15.00;64.65;100179.72;5005587;28;6956;-74
2023/09/23 06:30:05;;;;;;;;;;;;;;;15.05;64.46;100177.28;5014946;28;6775;-73
2023/09/23 06:32:34;;;;;;;;;;;;;;;15.07;64.51;100178.19;5018133;28;6938;-74
2023/09/23 06:35:00;;;;;;;;;;;;;;;15.11;63.97;100190.31;4997440;28;6970;-75
2023/09/23 06:37:25;;;;;;;;;;;;;;;15.13;64.71;100192.09;4997346;28;6780;-75
2023/09/23 06:39:51;;;;;;;;;;;;;;;15.17;64.25;100200.81;5006174;28;6863;-75
2023/09/23 06:42:16;;;;;;;;;;;;;;;15.23;64.87;100210.41;4998506;28;6965;-75
2023/09/23 06:44:45;;;;;;;;;;;;;;;15.26;64.22;100206.22;4992147;28;6859;-74
2023/09/23 06:47:11;;;;;;;;;;;;;;;15.29;63.64;100208.00;5009011;28;7015;-76
2023/09/23 06:49:37;;;;;;;;;;;;;;;15.32;63.94;100210.66;4987086;28;7214;-75
2023/09/23 06:52:02;;;;;;;;;;;;;;;15.35;63.72;100221.06;5007167;28;7277;-75
2023/09/23 06:54:28;;;;;;;;;;;;;;;15.36;64.27;100215.09;4991586;28;7033;-75
2023/09/23 06:56:57;;;;;;;;;;;;;;;15.40;63.78;100219.47;4974634;28;7552;-74
2023/09/23 06:59:22;;;;;;;;;;;;;;;15.44;63.65;100224.72;4995114;28;7254;-75
2023/09/23 07:01:48;;;;;;;;;;;;;;;15.47;64.04;100229.97;4995450;28;6784;-74
2023/09/23 07:04:13;;;;;;;;;;;;;;;15.51;64.00;100240.41;4997603;28;7125;-74
2023/09/23 07:06:39;;;;;;;;;;;;;;;15.55;63.97;100239.66;4986066;28;7456;-74
2023/09/23 07:09:04;;;;;;;;;;;;;;;15.59;63.95;100245.78;5011296;28;6952;-74
2023/09/23 07:11:30;;;;;;;;;;;;;;;15.64;63.98;100251.91;4998150;28;6801;-74
2023/09/23 07:13:58;;;;;;;;;;;;;;;15.71;64.33;100252.97;5007971;28;6792;-74
2023/09/23 07:16:23;;;;;;;;;;;;;;;15.79;64.02;100255.72;5014223;28;7265;-76
2023/09/23 07:18:49;;;;;;;;;;;;;;;15.89;64.14;100256.81;5014639;28;6787;-74
2023/09/23 07:21:14;;;;;;;;;;;;;;;16.01;64.12;100271.75;5009384;28;7132;-75
2023/09/23 07:23:40;;;;;;;;;;;;;;;16.11;63.92;100268.56;4993833;28;6987;-75
2023/09/23 07:26:06;;;;;;;;;;;;;;;16.22;63.77;100272.28;5007982;28;6784;-74
2023/09/23 07:28:31;;;;;;;;;;;;;;;16.35;63.32;100286.34;5008759;28;7211;-75
2023/09/23 07:30:57;;;;;;;;;;;;;;;16.43;63.51;100289.13;5011348;28;6933;-75
2023/09/23 07:33:22;;;;;;;;;;;;;;;16.55;63.75;100297.97;4988739;28;7035;-75
2023/09/23 07:35:48;;;;;;;;;;;;;;;16.62;63.08;100295.56;5012827;28;6784;-75
2023/09/23 07:38:13;;;;;;;;;;;;;;;16.66;63.07;100294.78;5012023;28;6967;-75
2023/09/23 07:40:40;;;;;;;;;;;;;;;16.74;62.77;100299.25;5003904;28;7108;-76
2023/09/23 07:43:07;;;;;;;;;;;;;;;16.80;62.47;100305.44;5003638;28;6815;-76
2023/09/23 07:45:32;;;;;;;;;;;;;;;16.83;61.98;100311.50;4991876;28;7003;-75
2023/09/23 07:47:58;;;;;;;;;;;;;;;16.84;62.24;100315.84;5001780;28;6942;-75
2023/09/23 07:50:24;;;;;;;;;;;;;;;16.83;62.22;100319.28;4980659;28;7687;-77
2023/09/23 07:52:49;;;;;;;;;;;;;;;16.82;62.61;100318.38;4985703;28;6792;-75
2023/09/23 07:55:14;;;;;;;;;;;;;;;16.87;62.12;100331.44;5008704;28;6796;-76
2023/09/23 07:57:40;;;;;;;;;;;;;;;16.91;61.90;100343.63;4986369;28;7186;-74
2023/09/23 08:00:08;;;;;;;;;;;;;;;17.00;62.56;100338.66;4974036;28;7005;-76
2023/09/23 08:02:35;;;;;;;;;;;;;;;17.16;62.76;100336.38;4997834;28;6986;-76
2023/09/23 08:05:04;;;;;;;;;;;;;;;17.29;62.39;100328.00;5005913;28;7274;-75
2023/09/23 08:07:30;;;;;;;;;;;;;;;17.40;62.37;100340.28;4988466;28;6804;-75
2023/09/23 08:09:57;;;;;;;;;;;;;;;17.51;61.60;100341.38;5000414;28;7066;-76
2023/09/23 08:12:23;;;;;;;;;;;;;;;17.58;61.63;100345.81;5003632;28;7207;-75
2023/09/23 08:14:48;;;;;;;;;;;;;;;17.59;61.09;100347.56;5003742;28;6775;-76
2023/09/23 08:17:14;;;;;;;;;;;;;;;17.60;60.96;100345.81;4998320;28;7234;-75
2023/09/23 08:19:40;;;;;;;;;;;;;;;17.59;60.86;100350.16;5002211;28;7010;-77
2023/09/23 08:22:06;;;;;;;;;;;;;;;17.61;60.89;100358.81;4990742;28;6951;-76
2023/09/23 08:24:31;;;;;;;;;;;;;;;17.75;61.52;100364.25;4977556;28;6971;-74
2023/09/23 08:26:57;;;;;;;;;;;;;;;17.92;61.04;100358.50;5000361;28;6871;-74
2023/09/23 08:29:24;;;;;;;;;;;;;;;18.00;60.45;100369.00;4982235;28;7399;-73
2023/09/23 08:31:50;;;;;;;;;;;;;;;18.10;60.66;100367.44;5001413;28;6980;-74
2023/09/23 08:34:17;;;;;;;;;;;;;;;18.20;60.80;100374.53;5005303;28;6803;-75
2023/09/23 08:36:43;;;;;;;;;;;;;;;18.30;60.69;100379.03;5000960;28;7274;-74
2023/09/23 08:39:09;;;;;;;;;;;;;;;18.43;60.48;100380.09;4968349;28;7182;-72
2023/09/23 08:41:36;;;;;;;;;;;;;;;18.56;60.33;100382.88;5007700;28;6966;-72
2023/09/23 08:44:05;;;;;;;;;;;;;;;18.67;59.74;100383.91;5005232;28;6982;-74
2023/09/23 08:46:31;;;;;;;;;;;;;;;18.73;59.52;100385.72;4997156;28;6788;-73
2023/09/23 08:49:00;;;;;;;;;;;;;;;18.77;58.92;100395.28;4989571;28;6839;-73
2023/09/23 08:51:30;;;;;;;;;;;;;;;18.79;59.27;100401.38;4992211;28;7233;-75
2023/09/23 08:53:55;;;;;;;;;;;;;;;18.79;59.04;100406.59;4989002;28;7133;-73
2023/09/23 08:56:21;;;;;;;;;;;;;;;18.85;59.06;100405.78;4989608;28;7030;-75
2023/09/23 08:58:49;;;;;;;;;;;;;;;18.94;59.29;100410.22;4996748;28;7625;-73
2023/09/23 09:01:16;;;;;;;;;;;;;;;19.02;58.49;100413.84;5004519;28;6808;-74
2023/09/23 09:03:43;;;;;;;;;;;;;;;19.10;58.39;100424.31;4999193;28;6830;-73
2023/09/23 09:06:16;;;;;;;;;;;;;;;19.18;58.26;100427.03;4990377;28;7085;-74
2023/09/23 09:08:42;;;;;;;;;;;;;;;19.22;58.02;100427.09;5001374;28;6987;-74
2023/09/23 09:11:08;;;;;;;;;;;;;;;19.28;58.07;100432.34;4980802;28;6979;-73
2023/09/23 09:16:06;;;;;;;;;;;;;;;19.42;57.84;100435.13;5017305;28;6980;-75
2023/09/23 09:18:32;;;;;;;;;;;;;;;19.51;57.59;100443.88;5004165;28;7313;-73
2023/09/23 09:20:58;;;;;;;;;;;;;;;19.58;57.37;100445.72;5002670;28;7314;-74
2023/09/23 09:23:29;;;;;;;;;;;;;;;19.64;56.71;100437.13;5001545;28;7194;-74
2023/09/23 09:25:54;;;;;;;;;;;;;;;19.69;57.05;100445.81;5010002;28;7288;-73
2023/09/23 09:28:20;;;;;;;;;;;;;;;19.71;56.42;100451.94;4993333;23;7819;-74
2023/09/23 09:30:54;;;;;;;;;;;;;;;19.74;56.68;100449.34;4947191;28;7066;-73
2023/09/23 09:33:24;;;;;;;;;;;;;;;19.82;56.37;100447.72;4976047;28;6824;-74
2023/09/23 09:35:54;;;;;;;;;;;;;;;19.98;56.75;100450.47;4956569;28;8432;-74
2023/09/23 09:38:22;;;;;;;;;;;;;;;20.09;55.88;100448.00;4940288;28;7018;-74
2023/09/23 09:40:49;;;;;;;;;;;;;;;20.14;55.96;100459.34;4940150;28;7488;-74
2023/09/23 09:43:16;;;;;;;;;;;;;;;20.15;55.18;100457.59;4958904;28;6991;-75
2023/09/23 09:45:44;;;;;;;;;;;;;;;20.15;55.52;100452.38;4950848;28;7146;-74
2023/09/23 09:48:12;;;;;;;;;;;;;;;20.19;55.00;100448.97;4941221;28;6863;-75
2023/09/23 09:50:39;;;;;;;;;;;;;;;20.25;54.85;100449.91;5019162;23;6980;-74
2023/09/23 09:53:06;;;;;;;;;;;;;;;20.31;54.92;100458.59;4941670;28;6989;-74
2023/09/23 09:55:32;;;;;;;;;;;;;;;20.42;55.18;100466.50;4952677;28;6981;-73
2023/09/23 09:58:01;;;;;;;;;;;;;;;20.60;55.02;100471.88;4954884;28;6799;-74
2023/09/23 10:00:35;;;;;;;;;;;;;;;20.76;54.85;100465.03;4960389;28;7090;-74
2023/09/23 10:03:08;;;;;;;;;;;;;;;20.89;54.44;100468.63;4986462;28;6811;-74
2023/09/23 10:05:46;;;;;;;;;;;;;;;21.01;54.17;100470.44;4945384;28;7014;-75
2023/09/23 10:08:15;;;;;;;;;;;;;;;21.11;54.35;100460.94;4981951;28;7236;-75
2023/09/23 10:10:47;;;;;;;;;;;;;;;21.33;54.47;100468.84;4972631;28;7097;-75
2023/09/23 10:13:23;;;;;;;;;;;;;;;21.69;54.27;100467.28;4986458;28;6808;-74
2023/09/23 10:15:50;;;;;;;;;;;;;;;22.10;53.43;100470.88;4973276;28;6828;-74
2023/09/23 10:18:17;;;;;;;;;;;;;;;22.61;52.68;100465.69;4954798;28;6989;-74
2023/09/23 10:20:56;;;;;;;;;;;;;;;23.15;51.25;100472.53;4951987;28;7318;-75
2023/09/23 10:23:22;;;;;;;;;;;;;;;23.43;50.84;100475.09;4970394;28;7414;-74
2023/09/23 10:25:52;;;;;;;;;;;;;;;23.50;50.19;100475.94;4987481;28;6767;-74
2023/09/23 10:28:22;;;;;;;;;;;;;;;23.35;48.91;100476.00;4965887;28;6987;-74
2023/09/23 10:30:57;;;;;;;;;;;;;;;22.97;48.78;100475.22;4964558;28;7260;-73
2023/09/23 10:33:26;;;;;;;;;;;;;;;23.02;49.51;100465.63;4972359;28;6804;-73
2023/09/23 10:35:53;;;;;;;;;;;;;;;23.47;49.41;100473.34;4952155;28;6889;-73
2023/09/23 10:38:25;;;;;;;;;;;;;;;23.90;48.67;100459.16;4962183;28;6973;-74
2023/09/23 10:40:52;;;;;;;;;;;;;;;24.37;47.36;100461.47;4958599;28;6984;-73
2023/09/23 10:43:20;;;;;;;;;;;;;;;24.90;46.77;100463.63;4972922;28;7002;-76
2023/09/23 10:45:45;;;;;;;;;;;;;;;25.55;46.14;100467.31;4965530;28;7547;-76
2023/09/23 10:48:14;;;;;;;;;;;;;;;26.05;44.66;100459.56;4994173;28;7049;-75
2023/09/23 10:50:40;;;;;;;;;;;;;;;26.43;44.31;100465.97;4970367;28;6812;-76
2023/09/23 10:53:07;;;;;;;;;;;;;;;26.90;43.31;100462.56;5003539;23;7471;-74
2023/09/23 10:55:34;;;;;;;;;;;;;;;27.33;42.44;100463.47;4998202;28;7193;-75
2023/09/23 10:58:00;;;;;;;;;;;;;;;27.46;41.63;100482.50;5004248;28;7213;-76
2023/09/23 11:00:28;;;;;;;;;;;;;;;27.09;41.46;100476.25;4987846;28;6876;-77
2023/09/23 11:02:54;;;;;;;;;;;;;;;26.54;41.76;100480.69;4989604;28;6990;-75
2023/09/23 11:05:24;;;;;;;;;;;;;;;26.06;41.95;100479.69;5009342;28;6776;-76
2023/09/23 11:07:54;;;;;;;;;;;;;;;25.60;42.14;100492.59;4989004;28;6960;-76
2023/09/23 11:10:21;;;;;;;;;;;;;;;25.31;42.90;100496.41;4993334;28;7164;-77
2023/09/23 11:12:47;;;;;;;;;;;;;;;25.17;43.54;100501.81;4991366;28;7388;-76
2023/09/23 11:15:13;;;;;;;;;;;;;;;24.90;43.31;100505.56;5027478;23;6780;-76
2023/09/23 11:17:40;;;;;;;;;;;;;;;24.57;43.06;100508.44;4977713;28;7242;-75
2023/09/23 11:20:09;;;;;;;;;;;;;;;24.44;43.58;100509.44;5078366;23;7696;-75
2023/09/23 11:22:37;;;;;;;;;;;;;;;24.50;43.46;100515.50;5014469;28;7050;-76
2023/09/23 11:25:08;;;;;;;;;;;;;;;24.80;43.06;100513.50;5023665;28;6986;-76
2023/09/23 11:27:33;;;;;;;;;;;;;;;25.09;43.02;100517.59;5004103;28;6824;-76
2023/09/23 11:29:58;;;;;;;;;;;;;;;25.47;42.30;100511.94;5002336;28;6823;-75
2023/09/23 11:32:25;;;;;;;;;;;;;;;25.85;41.78;100520.25;5006821;28;6775;-75
2023/09/23 11:34:52;;;;;;;;;;;;;;;26.13;41.59;100520.72;4996058;28;6968;-76
2023/09/23 11:37:20;;;;;;;;;;;;;;;26.66;41.06;100519.94;5011903;28;6942;-75
2023/09/23 11:39:46;;;;;;;;;;;;;;;27.06;40.24;100521.00;5010554;28;6988;-76
2023/09/23 11:42:12;;;;;;;;;;;;;;;27.25;39.55;100529.41;5014115;28;7161;-76
2023/09/23 11:44:38;;;;;;;;;;;;;;;27.36;39.39;100530.97;5020986;28;7119;-76
2023/09/23 11:49:29;;;;;;;;;;;;;;;27.94;37.75;100528.88;5034111;23;6755;-76
2023/09/23 11:51:55;;;;;;;;;;;;;;;28.02;37.82;100531.34;4984641;28;7333;-76
2023/09/23 11:54:20;;;;;;;;;;;;;;;27.97;37.56;100530.56;5000344;23;6951;-74
2023/09/23 11:56:46;;;;;;;;;;;;;;;27.94;37.33;100541.19;4944848;28;7935;-74
2023/09/23 11:59:13;;;;;;;;;;;;;;;27.58;37.17;100542.81;4946025;28;6815;-74
2023/09/23 12:01:39;;;;;;;;;;;;;;;27.52;37.33;100545.53;4961536;28;7014;-74
2023/09/23 12:04:04;;;;;;;;;;;;;;;27.57;37.42;100550.72;4945981;28;6800;-74
2023/09/23 12:06:34;;;;;;;;;;;;;;;27.72;37.15;100547.78;4946388;28;6800;-74
2023/09/23 12:09:01;;;;;;;;;;;;;;;27.99;37.04;100553.34;4960641;28;8091;-74
2023/09/23 12:11:27;;;;;;;;;;;;;;;28.31;36.73;100550.03;4950039;28;7851;-74
2023/09/23 12:13:53;;;;;;;;;;;;;;;28.27;36.42;100557.16;4965711;28;6788;-74
2023/09/23 12:16:19;;;;;;;;;;;;;;;28.25;36.50;100564.22;4945247;28;6978;-74
2023/09/23 12:18:47;;;;;;;;;;;;;;;27.98;36.57;100566.53;4949193;28;6946;-74
2023/09/23 12:21:16;;;;;;;;;;;;;;;27.37;36.82;100572.16;4948134;28;7158;-74
2023/09/23 12:23:42;;;;;;;;;;;;;;;26.67;37.36;100566.34;4948164;28;6994;-73
2023/09/23 12:26:09;;;;;;;;;;;;;;;26.04;37.51;100579.50;4961630;28;6987;-74
2023/09/23 12:28:35;;;;;;;;;;;;;;;25.45;38.19;100569.69;4950440;28;7168;-74
2023/09/23 12:31:01;;;;;;;;;;;;;;;25.01;38.30;100571.88;4944129;28;7220;-74
2023/09/23 12:33:27;;;;;;;;;;;;;;;24.66;39.11;100579.09;4962573;28;6788;-74
2023/09/23 12:35:52;;;;;;;;;;;;;;;24.43;39.63;100586.28;4961855;28;6783;-74
2023/09/23 12:38:19;;;;;;;;;;;;;;;24.31;39.64;100587.22;4948028;28;6943;-74
2023/09/23 12:40:44;;;;;;;;;;;;;;;24.16;40.06;100594.31;4957762;28;7101;-74
2023/09/23 12:43:11;;;;;;;;;;;;;;;24.06;40.31;100595.22;4976987;28;6780;-75
2023/09/23 12:45:40;;;;;;;;;;;;;;;23.92;39.87;100596.09;4944217;28;7081;-74
2023/09/23 12:48:07;;;;;;;;;;;;;;;23.75;40.34;100593.56;4949006;28;7157;-74
2023/09/23 12:50:32;;;;;;;;;;;;;;;23.63;40.74;100598.84;4943264;28;6978;-74
2023/09/23 12:52:58;;;;;;;;;;;;;;;23.58;40.94;100607.56;4960259;28;7211;-73
2023/09/23 12:55:23;;;;;;;;;;;;;;;23.58;41.07;100601.47;4940217;28;6970;-73